Time;durP1;ratioP1;P1;durP2;ratioP2;P2;SDS_P1;SDS_P2;PMS_P1;PMS_P2;Temp;Humidity;BMP_temperature;BMP_pressure;BME280_temperature;BME280_humidity;BME280_pressure;Samples;Min_cycle;Max_cycle;Signal;HPM_P1;HPM_P2
2023/01/11 00:01:16;;;;;;;10.93;3.22;;;;;;;3.84;100.00;100178.41;5007912;28;20040;-76
2023/01/11 00:03:41;;;;;;;8.32;2.90;;;;;;;3.91;100.00;100192.75;5009272;28;20025;-75
2023/01/11 00:06:09;;;;;;;10.60;3.00;;;;;;;3.84;100.00;100171.34;4991496;28;20068;-75
2023/01/11 00:08:34;;;;;;;14.68;3.13;;;;;;;3.96;100.00;100180.84;5007799;28;20295;-76
2023/01/11 00:11:01;;;;;;;8.70;3.80;;;;;;;3.95;100.00;100176.53;5024166;28;20046;-76
2023/01/11 00:13:27;;;;;;;10.38;4.15;;;;;;;3.97;100.00;100176.41;5008122;28;20033;-75
2023/01/11 00:15:53;;;;;;;8.98;3.17;;;;;;;4.04;100.00;100176.69;5007385;28;20026;-76
2023/01/11 00:18:18;;;;;;;15.17;5.50;;;;;;;3.95;100.00;100175.69;5008035;28;20066;-75
2023/01/11 00:20:43;;;;;;;12.57;4.13;;;;;;;3.93;100.00;100165.28;5001823;28;20328;-75
2023/01/11 00:23:09;;;;;;;13.32;3.92;;;;;;;3.92;100.00;100163.59;4992217;28;20030;-75
2023/01/11 00:25:34;;;;;;;8.90;4.05;;;;;;;3.99;100.00;100169.19;5008584;28;20033;-77
2023/01/11 00:28:00;;;;;;;7.38;3.22;;;;;;;3.97;100.00;100156.09;5024318;28;20503;-77
2023/01/11 00:30:25;;;;;;;10.10;3.10;;;;;;;3.96;100.00;100148.31;5007204;28;20046;-77
2023/01/11 00:32:58;;;;;;;8.73;3.67;;;;;;;4.00;100.00;100141.78;5008845;28;20916;-77
2023/01/11 00:35:25;;;;;;;13.10;3.97;;;;;;;4.01;100.00;100135.53;5007824;28;20291;-76
2023/01/11 00:37:52;;;;;;;15.80;3.80;;;;;;;3.96;100.00;100106.06;5008754;28;20061;-77
2023/01/11 00:40:18;;;;;;;14.35;4.47;;;;;;;4.04;100.00;100129.16;5007652;28;20036;-77
2023/01/11 00:48:11;;;;;;;19.20;5.68;;;;;;;4.11;100.00;100109.97;5003519;28;20036;-77
2023/01/11 00:50:38;;;;;;;11.90;3.30;;;;;;;4.08;100.00;100112.91;5002084;28;20030;-77
2023/01/11 00:53:05;;;;;;;13.52;4.80;;;;;;;4.18;100.00;100108.47;5005167;28;20029;-77
2023/01/11 00:55:30;;;;;;;8.85;3.78;;;;;;;4.25;100.00;100105.28;5007524;28;20029;-77
2023/01/11 00:57:57;;;;;;;7.65;4.28;;;;;;;4.32;100.00;100107.22;4990252;28;21042;-77
2023/01/11 01:00:22;;;;;;;14.60;5.40;;;;;;;4.34;100.00;100091.25;4997953;28;20092;-77
2023/01/11 01:02:48;;;;;;;19.17;5.07;;;;;;;4.24;100.00;100088.59;4991013;28;20025;-77
2023/01/11 01:05:14;;;;;;;10.50;4.18;;;;;;;4.25;100.00;100073.56;5007145;28;20026;-77
2023/01/11 01:07:40;;;;;;;9.93;3.80;;;;;;;4.33;100.00;100087.78;5007800;28;20462;-76
2023/01/11 01:10:07;;;;;;;10.75;3.70;;;;;;;4.30;100.00;100081.91;5007974;28;20057;-76
2023/01/11 01:15:17;;;;;;;11.90;4.30;;;;;;;4.32;100.00;100066.75;5002871;28;20428;-76
2023/01/11 01:17:42;;;;;;;10.63;4.20;;;;;;;4.37;100.00;100080.38;5023018;28;20030;-77
2023/01/11 01:20:08;;;;;;;15.63;4.27;;;;;;;4.38;100.00;100059.09;5008003;28;20069;-76
2023/01/11 01:22:34;;;;;;;12.60;4.53;;;;;;;4.45;100.00;100059.38;5006124;28;20079;-76
2023/01/11 01:24:59;;;;;;;17.20;4.60;;;;;;;4.44;100.00;100063.81;5022889;28;20117;-76
2023/01/11 01:27:25;;;;;;;10.07;4.30;;;;;;;4.51;100.00;100053.53;5006695;28;20018;-76
2023/01/11 01:29:50;;;;;;;14.55;6.05;;;;;;;4.51;100.00;100037.66;5006268;28;20701;-75
2023/01/11 01:32:15;;;;;;;12.70;4.73;;;;;;;4.55;100.00;100039.06;5022865;28;20049;-76
2023/01/11 01:34:41;;;;;;;12.50;5.23;;;;;;;4.54;100.00;100042.69;5007631;28;20134;-76
2023/01/11 01:37:06;;;;;;;11.40;4.87;;;;;;;4.50;100.00;100032.53;5006010;28;20037;-77
2023/01/11 01:39:32;;;;;;;14.07;4.88;;;;;;;4.57;100.00;100042.41;5006385;28;20017;-76
2023/01/11 01:41:58;;;;;;;11.90;5.45;;;;;;;4.56;100.00;100035.44;5007026;28;20101;-76
2023/01/11 01:44:53;;;;;;;11.45;5.47;;;;;;;4.59;100.00;100035.16;5007488;28;20026;-76
2023/01/11 01:47:20;;;;;;;;;;;;;;;4.60;100.00;100034.19;5001643;28;20041;-76
2023/01/11 01:49:45;;;;;;;9.98;4.28;;;;;;;4.60;100.00;100031.53;5006039;28;19917;-76
2023/01/11 01:52:11;;;;;;;13.00;5.13;;;;;;;4.62;100.00;100021.66;5022482;28;20042;-77
2023/01/11 01:54:40;;;;;;;10.68;4.75;;;;;;;4.65;100.00;100024.00;5007532;28;20029;-76
2023/01/11 01:57:13;;;;;;;10.05;3.75;;;;;;;4.71;100.00;100021.78;5020284;28;20040;-75
2023/01/11 01:59:40;;;;;;;9.35;4.75;;;;;;;4.72;100.00;100012.88;5004245;28;20117;-76
2023/01/11 02:02:05;;;;;;;9.55;3.83;;;;;;;4.73;100.00;100020.66;4975560;28;20128;-75
2023/01/11 02:04:43;;;;;;;9.10;3.72;;;;;;;4.77;100.00;100008.81;5002725;28;20120;-75
2023/01/11 02:07:13;;;;;;;9.93;3.95;;;;;;;4.82;100.00;100003.94;5006508;28;20037;-76
2023/01/11 02:10:01;;;;;;;11.68;3.47;;;;;;;4.87;100.00;100011.44;5022812;28;20034;-75
2023/01/11 02:12:31;;;;;;;8.80;3.42;;;;;;;4.93;100.00;99983.56;5002889;28;20049;-74
2023/01/11 02:14:59;;;;;;;6.82;3.65;;;;;;;4.96;100.00;99994.69;5007774;28;20681;-75
2023/01/11 02:17:24;;;;;;;10.50;5.10;;;;;;;4.90;100.00;99982.06;4991139;28;20533;-76
2023/01/11 02:20:00;;;;;;;12.93;3.63;;;;;;;4.94;100.00;99969.34;5000477;28;20030;-75
2023/01/11 02:22:56;;;;;;;8.52;3.60;;;;;;;5.00;100.00;99963.50;5006253;28;20033;-76
2023/01/11 02:26:01;;;;;;;12.70;4.78;;;;;;;4.97;100.00;99961.97;5001453;28;20048;-75
2023/01/11 02:28:29;;;;;;;11.60;4.43;;;;;;;5.01;100.00;99970.44;5002557;28;20371;-75
2023/01/11 02:31:15;;;;;;;9.45;4.13;;;;;;;4.97;100.00;99955.88;4989185;28;20790;-75
2023/01/11 02:34:25;;;;;;;12.73;4.60;;;;;;;4.98;100.00;99958.34;5022775;28;20048;-75
2023/01/11 02:36:53;;;;;;;7.88;3.47;;;;;;;4.95;100.00;99940.13;5005865;28;20037;-76
2023/01/11 02:39:44;;;;;;;10.73;3.85;;;;;;;4.98;100.00;99963.63;5005640;28;20115;-77
2023/01/11 02:45:37;;;;;;;9.97;4.53;;;;;;;4.96;100.00;99946.25;5007279;28;20038;-77
2023/01/11 02:48:30;;;;;;;10.57;4.60;;;;;;;4.92;100.00;99945.72;4976681;28;20912;-76
2023/01/11 02:51:07;;;;;;;6.80;3.28;;;;;;;4.97;100.00;99948.75;5006242;28;20064;-77
2023/01/11 02:53:42;;;;;;;6.93;4.05;;;;;;;4.97;100.00;99932.88;5023178;28;20125;-76
2023/01/11 02:56:11;;;;;;;9.35;4.50;;;;;;;5.00;100.00;99937.03;5015204;28;20042;-76
2023/01/11 02:58:41;;;;;;;5.60;3.83;;;;;;;5.01;100.00;99936.91;5006884;28;20109;-77
2023/01/11 03:01:06;;;;;;;7.38;3.75;;;;;;;5.06;100.00;99934.66;5027093;28;20041;-75
2023/01/11 03:03:32;;;;;;;11.40;4.38;;;;;;;5.10;100.00;99921.13;5010637;28;20049;-76
2023/01/11 03:06:10;;;;;;;5.95;4.35;;;;;;;5.10;100.00;99914.00;5010885;28;20034;-77
2023/01/11 03:09:09;;;;;;;5.75;3.40;;;;;;;5.10;100.00;99915.81;5010038;28;20030;-77
2023/01/11 03:15:27;;;;;;;10.50;3.75;;;;;;;5.14;100.00;99910.09;5011052;28;20041;-77
2023/01/11 03:18:14;;;;;;;6.72;3.75;;;;;;;5.14;100.00;99918.03;4953433;28;20747;-77
2023/01/11 03:21:20;;;;;;;10.57;4.32;;;;;;;5.19;100.00;99920.25;4953308;28;20093;-76
2023/01/11 03:24:11;;;;;;;9.18;4.22;;;;;;;5.26;100.00;99910.72;4951911;28;20050;-76
2023/01/11 03:26:58;;;;;;;10.43;5.55;;;;;;;5.25;100.00;99909.06;4952799;28;20039;-76
2023/01/11 03:29:26;;;;;;;9.93;5.05;;;;;;;5.33;100.00;99913.63;4968709;28;20049;-76
2023/01/11 03:31:54;;;;;;;8.65;4.10;;;;;;;5.29;100.00;99907.78;4952121;28;20037;-76
2023/01/11 03:34:52;;;;;;;12.52;5.15;;;;;;;5.32;100.00;99899.56;4952703;28;20038;-76
2023/01/11 03:37:25;;;;;;;8.32;4.43;;;;;;;5.34;100.00;99907.31;4968898;28;20419;-76
2023/01/11 03:40:02;;;;;;;8.18;5.45;;;;;;;5.41;100.00;99916.38;4968389;28;20122;-77
2023/01/11 03:42:31;;;;;;;12.38;4.95;;;;;;;5.47;100.00;99903.34;4968349;28;20061;-77
2023/01/11 03:44:59;;;;;;;7.05;4.07;;;;;;;5.46;100.00;99888.44;4952482;28;20026;-76
2023/01/11 03:47:28;;;;;;;6.60;4.07;;;;;;;5.50;100.00;99886.31;4951783;28;20030;-76
2023/01/11 03:50:01;;;;;;;6.78;4.22;;;;;;;5.59;100.00;99892.53;5008350;28;20173;-76
2023/01/11 03:52:34;;;;;;;6.15;3.97;;;;;;;5.58;100.00;99873.16;5009422;28;20499;-76
2023/01/11 03:55:03;;;;;;;6.07;4.07;;;;;;;5.57;100.00;99871.50;5008455;28;20037;-76
2023/01/11 03:57:34;;;;;;;12.50;4.75;;;;;;;5.61;100.00;99874.69;5025021;28;20022;-76
2023/01/11 04:00:00;;;;;;;8.80;4.72;;;;;;;5.65;100.00;99873.41;5017919;28;20036;-77
2023/01/11 04:02:32;;;;;;;7.85;4.45;;;;;;;5.70;100.00;99876.41;5009000;28;20030;-77
2023/01/11 04:04:58;;;;;;;6.63;5.35;;;;;;;5.72;100.00;99879.75;5000901;28;20045;-76
2023/01/11 04:07:23;;;;;;;7.93;4.30;;;;;;;5.72;100.00;99869.97;5025760;28;20014;-77
2023/01/11 04:09:48;;;;;;;5.77;4.47;;;;;;;5.72;100.00;99874.44;5007949;28;20042;-77
2023/01/11 04:12:14;;;;;;;4.50;3.70;;;;;;;5.80;100.00;99861.25;5008325;28;20034;-76
2023/01/11 04:14:39;;;;;;;7.70;4.53;;;;;;;5.81;100.00;99870.88;5025541;28;20491;-76
2023/01/11 04:17:04;;;;;;;8.00;4.40;;;;;;;5.79;100.00;99864.91;5025155;28;20061;-75
2023/01/11 04:19:30;;;;;;;7.17;3.70;;;;;;;5.79;100.00;99850.84;5025439;28;20033;-75
2023/01/11 04:21:55;;;;;;;6.65;3.50;;;;;;;5.80;100.00;99855.97;5008417;28;20033;-76
2023/01/11 04:24:21;;;;;;;6.85;4.32;;;;;;;5.83;100.00;99854.81;5009706;28;20029;-76
2023/01/11 04:26:46;;;;;;;5.83;3.57;;;;;;;5.81;100.00;99860.28;5024597;28;20046;-76
2023/01/11 04:29:11;;;;;;;6.80;4.30;;;;;;;5.85;100.00;99852.84;5025009;28;20014;-76
2023/01/11 04:31:37;;;;;;;7.57;3.87;;;;;;;5.87;100.00;99864.97;5024672;28;20041;-76
2023/01/11 04:34:02;;;;;;;5.70;3.23;;;;;;;5.86;100.00;99850.06;5008276;28;20030;-76
2023/01/11 04:36:30;;;;;;;9.60;4.20;;;;;;;5.87;100.00;99851.72;5007988;28;20040;-75
2023/01/11 04:38:56;;;;;;;3.88;3.28;;;;;;;5.91;100.00;99854.91;5025187;28;20022;-75
2023/01/11 04:44:05;;;;;;;6.03;3.53;;;;;;;6.03;100.00;99843.09;5002013;28;20029;-76
2023/01/11 04:46:31;;;;;;;3.77;2.43;;;;;;;6.09;100.00;99836.34;5023494;28;20036;-76
2023/01/11 04:48:56;;;;;;;4.00;2.80;;;;;;;6.10;100.00;99835.34;5023994;28;20302;-75
2023/01/11 04:51:21;;;;;;;5.10;3.07;;;;;;;6.17;100.00;99831.09;5007280;28;20037;-76
2023/01/11 04:53:50;;;;;;;4.80;3.00;;;;;;;6.14;100.00;99839.38;5023606;28;20088;-75
2023/01/11 04:56:16;;;;;;;4.70;2.72;;;;;;;6.17;100.00;99833.75;5023436;28;20289;-76
2023/01/11 04:58:41;;;;;;;3.55;2.53;;;;;;;6.22;100.00;99831.44;5007986;28;20092;-75
2023/01/11 05:01:13;;;;;;;4.50;3.20;;;;;;;6.24;100.00;99837.44;4984396;28;20033;-74
2023/01/11 05:03:38;;;;;;;3.55;2.53;;;;;;;6.23;100.00;99830.47;5006689;28;20045;-75
2023/01/11 05:06:04;;;;;;;3.90;2.87;;;;;;;6.27;100.00;99829.16;5007616;28;20040;-75
2023/01/11 05:08:30;;;;;;;3.35;2.67;;;;;;;6.33;100.00;99831.19;5023079;28;20399;-75
2023/01/11 05:10:57;;;;;;;4.43;3.20;;;;;;;6.36;100.00;99826.56;5022800;28;20116;-75
2023/01/11 05:13:42;;;;;;;4.72;2.92;;;;;;;6.41;100.00;99834.88;4990297;28;20033;-75
2023/01/11 05:16:24;;;;;;;4.95;2.70;;;;;;;6.42;100.00;99839.19;5007434;28;20395;-75
2023/01/11 05:18:51;;;;;;;4.85;2.72;;;;;;;6.50;100.00;99841.88;5006513;28;20030;-74
2023/01/11 05:21:20;;;;;;;3.78;2.70;;;;;;;6.46;100.00;99819.31;5022471;28;20041;-75
2023/01/11 05:23:46;;;;;;;5.93;3.33;;;;;;;6.49;100.00;99834.91;5023078;28;20471;-75
2023/01/11 05:26:13;;;;;;;;;;;;;;;6.54;100.00;99822.84;4990103;28;20034;-75
2023/01/11 05:28:39;;;;;;;4.25;3.00;;;;;;;6.51;100.00;99827.66;5022949;28;19918;-75
2023/01/11 05:31:05;;;;;;;5.65;3.00;;;;;;;6.53;100.00;99825.63;5007410;28;20512;-75
2023/01/11 05:33:30;;;;;;;9.00;2.83;;;;;;;6.57;100.00;99823.50;5007897;28;20025;-74
2023/01/11 05:36:00;;;;;;;5.65;3.10;;;;;;;6.60;100.00;99837.28;4999432;28;20036;-75
2023/01/11 05:38:27;;;;;;;3.50;2.80;;;;;;;6.60;100.00;99831.13;5022917;28;20095;-75
2023/01/11 05:41:11;;;;;;;;;;;;;;;6.66;100.00;99834.00;5006306;28;20025;-76
2023/01/11 05:46:22;;;;;;;2.85;2.50;;;;;;;6.70;100.00;99831.88;5007035;28;20108;-75
2023/01/11 05:48:47;;;;;;;3.05;2.40;;;;;;;6.75;100.00;99830.38;5022485;28;20113;-74
2023/01/11 05:51:13;;;;;;;4.15;2.40;;;;;;;6.75;100.00;99825.06;5005961;28;20137;-75
2023/01/11 05:53:38;;;;;;;2.42;2.03;;;;;;;6.75;100.00;99827.72;5005976;28;20046;-75
2023/01/11 05:56:04;;;;;;;2.43;1.57;;;;;;;6.80;100.00;99821.13;5005530;28;20029;-75
2023/01/11 05:58:29;;;;;;;2.30;1.87;;;;;;;6.87;100.00;99830.09;5022234;28;20395;-76
2023/01/11 06:00:55;;;;;;;2.90;1.80;;;;;;;6.88;100.00;99829.09;5022039;28;20273;-75
2023/01/11 06:03:22;;;;;;;3.97;1.63;;;;;;;6.99;100.00;99834.09;5007044;28;20022;-76
2023/01/11 06:05:47;;;;;;;2.10;1.90;;;;;;;6.99;100.00;99831.47;5004933;28;20034;-76
2023/01/11 06:08:13;;;;;;;2.88;2.20;;;;;;;6.99;100.00;99831.47;5005867;28;20033;-76
2023/01/11 06:10:39;;;;;;;3.43;1.93;;;;;;;7.06;100.00;99831.66;5006895;28;20467;-76
2023/01/11 06:15:48;;;;;;;2.13;1.92;;;;;;;7.05;100.00;99828.16;5006344;28;20038;-76
2023/01/11 06:18:14;;;;;;;3.57;2.10;;;;;;;7.07;100.00;99828.84;5022235;28;20036;-75
2023/01/11 06:20:39;;;;;;;8.83;1.77;;;;;;;7.06;100.00;99816.53;4988837;28;20038;-76
2023/01/11 06:23:04;;;;;;;2.83;2.13;;;;;;;7.07;100.00;99831.50;5021728;28;20288;-75
2023/01/11 06:25:31;;;;;;;3.80;2.03;;;;;;;7.09;100.00;99824.16;5021326;28;20284;-75
2023/01/11 06:27:58;;;;;;;2.47;1.63;;;;;;;7.00;100.00;99821.66;4998812;28;20060;-76
2023/01/11 06:30:27;;;;;;;2.42;1.70;;;;;;;7.12;100.00;99837.13;5021479;28;20716;-75
2023/01/11 06:32:52;;;;;;;2.08;1.88;;;;;;;7.09;100.00;99826.81;5004712;28;20061;-75
2023/01/11 06:35:17;;;;;;;2.03;1.83;;;;;;;7.13;100.00;99836.13;5005906;28;20069;-76
2023/01/11 06:37:43;;;;;;;2.67;2.10;;;;;;;7.13;100.00;99844.09;5021657;28;20041;-77
2023/01/11 06:40:09;;;;;;;2.70;2.10;;;;;;;7.03;100.00;99835.47;5021872;28;20054;-75
2023/01/11 06:42:34;;;;;;;3.13;2.60;;;;;;;7.07;100.00;99834.16;5021064;28;20502;-76
2023/01/11 06:44:59;;;;;;;2.57;1.77;;;;;;;7.09;100.00;99836.63;5021698;28;20038;-75
2023/01/11 06:47:25;;;;;;;2.40;1.90;;;;;;;7.14;100.00;99851.09;5006770;28;20113;-75
2023/01/11 06:49:50;;;;;;;2.58;2.15;;;;;;;7.13;100.00;99841.44;5006052;28;20033;-75
2023/01/11 06:52:16;;;;;;;2.97;2.60;;;;;;;7.17;100.00;99849.94;5005150;28;20046;-76
2023/01/11 06:54:41;;;;;;;2.33;2.13;;;;;;;7.16;100.00;99841.13;5022048;28;20041;-75
2023/01/11 06:57:06;;;;;;;5.20;2.57;;;;;;;7.21;100.00;99850.41;5006334;28;20057;-76
2023/01/11 06:59:31;;;;;;;4.80;2.10;;;;;;;7.18;100.00;99846.25;5021721;28;20034;-76
2023/01/11 07:01:57;;;;;;;3.13;2.13;;;;;;;7.20;100.00;99860.22;5004811;28;20044;-76
2023/01/11 07:04:23;;;;;;;3.65;2.53;;;;;;;7.23;100.00;99854.56;5005211;28;20044;-75
2023/01/11 07:06:48;;;;;;;3.25;2.63;;;;;;;7.21;100.00;99861.03;4988308;28;20069;-75
2023/01/11 07:09:14;;;;;;;3.03;2.40;;;;;;;7.21;100.00;99872.50;5021566;28;20161;-76
2023/01/11 07:11:39;;;;;;;5.43;2.90;;;;;;;7.18;100.00;99856.88;5021056;28;20069;-75
2023/01/11 07:14:05;;;;;;;2.77;2.27;;;;;;;7.26;100.00;99870.19;5021482;28;20037;-76
2023/01/11 07:16:30;;;;;;;3.80;2.80;;;;;;;7.31;100.00;99877.69;5021021;28;20399;-76
2023/01/11 07:18:56;;;;;;;3.80;2.75;;;;;;;7.35;100.00;99876.34;4997075;28;20037;-75
2023/01/11 07:21:21;;;;;;;5.60;2.70;;;;;;;7.28;100.00;99877.97;5005898;28;20032;-76
2023/01/11 07:23:47;;;;;;;3.50;2.53;;;;;;;7.34;100.00;99882.66;5021283;28;20042;-76
2023/01/11 07:26:15;;;;;;;4.55;2.70;;;;;;;7.35;100.00;99890.47;5004722;28;20072;-75
2023/01/11 07:28:42;;;;;;;3.45;2.70;;;;;;;7.38;100.00;99878.69;5005904;28;20018;-76
2023/01/11 07:31:07;;;;;;;2.90;2.60;;;;;;;7.37;100.00;99883.16;5021161;28;20073;-76
2023/01/11 07:33:33;;;;;;;4.85;3.08;;;;;;;7.42;100.00;99895.09;5006170;28;20053;-76
2023/01/11 07:35:59;;;;;;;5.20;3.03;;;;;;;7.38;100.00;99884.81;5021164;28;20120;-75
2023/01/11 07:38:28;;;;;;;3.50;2.63;;;;;;;7.42;100.00;99895.94;5021207;28;20029;-75
2023/01/11 07:40:53;;;;;;;5.90;2.88;;;;;;;7.43;100.00;99907.41;4988372;28;20053;-76
2023/01/11 07:43:21;;;;;;;3.75;2.92;;;;;;;7.39;100.00;99910.38;5006139;28;20033;-76
2023/01/11 07:45:49;;;;;;;4.72;3.42;;;;;;;7.46;100.00;99915.88;5023151;28;20051;-76
2023/01/11 07:48:19;;;;;;;5.28;2.95;;;;;;;7.48;100.00;99921.03;4999589;28;20037;-75
2023/01/11 07:50:45;;;;;;;3.72;3.08;;;;;;;7.50;100.00;99906.59;5006983;28;20034;-75
2023/01/11 07:53:12;;;;;;;3.55;2.63;;;;;;;7.51;100.00;99926.81;5009144;28;20018;-75
2023/01/11 07:55:38;;;;;;;;;;;;;;;7.55;100.00;99927.34;5009704;28;20045;-75
2023/01/11 07:58:04;;;;;;;4.15;3.00;;;;;;;7.52;100.00;99914.41;5008970;28;19920;-75
2023/01/11 08:00:30;;;;;;;5.72;3.67;;;;;;;7.57;100.00;99926.19;5009749;28;20410;-76
2023/01/11 08:02:56;;;;;;;5.13;3.25;;;;;;;7.55;100.00;99927.34;5005854;28;20014;-76
2023/01/11 08:05:21;;;;;;;5.47;2.77;;;;;;;7.65;100.00;99925.38;4990664;28;20034;-75
2023/01/11 08:07:47;;;;;;;4.63;3.03;;;;;;;7.66;100.00;99934.19;5025004;28;20361;-76
2023/01/11 08:10:12;;;;;;;3.95;2.95;;;;;;;7.72;100.00;99936.16;5008621;28;20442;-75
2023/01/11 08:15:27;;;;;;;3.63;3.00;;;;;;;7.74;100.00;99926.22;5004192;28;20096;-75
2023/01/11 08:17:53;;;;;;;8.10;3.20;;;;;;;7.72;100.00;99928.19;5025381;28;20399;-75
2023/01/11 08:20:19;;;;;;;5.63;3.17;;;;;;;7.73;100.00;99933.38;5009335;28;20467;-76
2023/01/11 08:22:45;;;;;;;4.00;3.20;;;;;;;7.75;100.00;99938.50;5025350;28;20038;-76
2023/01/11 08:25:10;;;;;;;4.33;3.00;;;;;;;7.80;100.00;99942.34;5024541;28;20026;-75
2023/01/11 08:27:35;;;;;;;4.87;2.73;;;;;;;7.81;100.00;99938.66;5024300;28;20032;-75
2023/01/11 08:30:01;;;;;;;4.60;3.20;;;;;;;7.74;100.00;99929.69;5009658;28;20022;-76
2023/01/11 08:32:27;;;;;;;4.57;3.27;;;;;;;7.86;100.00;99935.53;5008193;28;20680;-75
2023/01/11 08:34:53;;;;;;;4.13;3.03;;;;;;;7.85;100.00;99933.88;5009167;28;20044;-76
2023/01/11 08:37:18;;;;;;;4.37;3.33;;;;;;;7.82;100.00;99934.22;5024134;28;20121;-76
2023/01/11 08:39:43;;;;;;;6.20;3.70;;;;;;;7.82;100.00;99948.31;5024379;28;20053;-76
2023/01/11 08:42:09;;;;;;;8.10;4.87;;;;;;;7.80;100.00;99946.81;5001339;28;20056;-76
2023/01/11 08:44:34;;;;;;;9.37;4.10;;;;;;;7.85;100.00;99955.13;5007952;28;20034;-75
2023/01/11 08:47:00;;;;;;;9.03;4.53;;;;;;;7.91;100.00;99948.31;5009013;28;20034;-76
2023/01/11 08:49:26;;;;;;;5.90;4.32;;;;;;;7.86;100.00;99940.00;5007855;28;20029;-76
2023/01/11 08:51:51;;;;;;;8.33;5.10;;;;;;;7.91;100.00;99943.81;5024339;28;20038;-76
2023/01/11 08:54:16;;;;;;;11.73;5.27;;;;;;;7.88;100.00;99954.78;5008969;28;20060;-75
2023/01/11 08:56:42;;;;;;;11.10;5.83;;;;;;;7.89;100.00;99948.50;5008019;28;20042;-76
2023/01/11 08:59:09;;;;;;;12.07;5.47;;;;;;;7.94;100.00;99955.97;5024329;28;20032;-76
2023/01/11 09:01:34;;;;;;;13.77;6.63;;;;;;;7.93;100.00;99952.47;5007186;28;20040;-75
2023/01/11 09:03:59;;;;;;;14.60;7.00;;;;;;;7.97;100.00;99950.34;5009190;28;20105;-76
2023/01/11 09:06:25;;;;;;;11.33;6.27;;;;;;;8.02;100.00;99956.81;5008663;28;20566;-75
2023/01/11 09:08:51;;;;;;;9.67;6.33;;;;;;;8.09;100.00;99956.16;5006983;28;20057;-75
2023/01/11 09:14:02;;;;;;;10.18;6.78;;;;;;;8.11;100.00;99952.31;5007115;28;20096;-75
2023/01/11 09:16:28;;;;;;;23.60;8.57;;;;;;;8.10;100.00;99956.00;5003720;28;20136;-75
2023/01/11 09:18:54;;;;;;;14.50;7.17;;;;;;;8.07;100.00;99958.13;5007356;28;20417;-75
2023/01/11 09:21:20;;;;;;;15.48;6.95;;;;;;;8.05;100.00;99955.63;5023638;28;20280;-76
2023/01/11 09:23:45;;;;;;;11.98;7.80;;;;;;;8.07;100.00;99958.13;5007434;28;20777;-76
2023/01/11 09:26:11;;;;;;;13.77;7.63;;;;;;;8.04;100.00;99965.44;5020597;28;20125;-76
2023/01/11 09:28:37;;;;;;;12.50;6.63;;;;;;;8.12;100.00;99966.44;4990379;28;20029;-76
2023/01/11 09:31:02;;;;;;;12.02;7.55;;;;;;;8.13;100.00;99973.44;5007041;28;20038;-75
2023/01/11 09:33:28;;;;;;;16.80;7.93;;;;;;;8.18;100.00;99982.56;5023739;28;20034;-76
2023/01/11 09:35:56;;;;;;;13.27;7.40;;;;;;;8.17;100.00;99974.75;5023243;28;20073;-75
2023/01/11 09:38:25;;;;;;;17.25;6.32;;;;;;;8.28;100.00;99978.91;5023732;28;20347;-76
2023/01/11 09:41:08;;;;;;;15.20;7.05;;;;;;;8.29;100.00;99986.75;5023428;28;20125;-76
2023/01/11 09:43:40;;;;;;;18.60;7.40;;;;;;;8.29;100.00;99978.75;5007902;28;20048;-76
2023/01/11 09:46:07;;;;;;;11.55;6.25;;;;;;;8.29;100.00;99969.94;5023329;28;20121;-76
2023/01/11 09:48:49;;;;;;;11.38;5.30;;;;;;;8.31;100.00;99976.78;5007775;28;20042;-76
2023/01/11 09:51:15;;;;;;;17.02;6.38;;;;;;;8.36;100.00;99974.44;5023164;28;20026;-76
2023/01/11 09:53:45;;;;;;;;;;;;;;;8.35;100.00;99967.44;5023371;28;20128;-76
2023/01/11 09:56:14;;;;;;;12.13;5.22;;;;;;;8.27;100.00;99954.16;5006464;28;19917;-76
2023/01/11 09:58:45;;;;;;;11.00;4.03;;;;;;;8.28;100.00;99971.75;5006768;28;20032;-76
2023/01/11 10:01:20;;;;;;;11.20;5.05;;;;;;;8.27;100.00;99977.28;5023289;28;20147;-76
2023/01/11 10:04:31;;;;;;;15.32;4.07;;;;;;;8.33;100.00;99969.44;5023010;28;20044;-76
2023/01/11 10:07:16;;;;;;;26.15;5.43;;;;;;;8.39;100.00;99968.78;5022793;28;20046;-76
2023/01/11 10:10:19;;;;;;;14.63;4.50;;;;;;;8.40;100.00;99959.81;5012426;28;20038;-76
2023/01/11 10:13:05;;;;;;;22.30;4.40;;;;;;;8.41;100.00;99966.81;4994214;28;20046;-76
2023/01/11 10:15:58;;;;;;;15.63;4.18;;;;;;;8.51;100.00;99973.78;5022838;28;20987;-76
2023/01/11 10:18:57;;;;;;;11.68;4.13;;;;;;;8.50;100.00;99958.81;4989600;28;20057;-77
2023/01/11 10:21:41;;;;;;;9.30;3.40;;;;;;;8.52;100.00;99967.47;5017232;28;20493;-77
2023/01/11 10:24:20;;;;;;;16.85;4.60;;;;;;;8.54;100.00;99982.25;5005277;28;20033;-77
2023/01/11 10:26:49;;;;;;;14.23;4.95;;;;;;;8.42;100.00;99979.09;5004872;28;20133;-77
2023/01/11 10:29:38;;;;;;;25.90;5.18;;;;;;;8.50;100.00;99983.59;5021692;28;20117;-76
2023/01/11 10:32:31;;;;;;;11.50;2.35;;;;;;;8.47;100.00;99980.44;4988481;28;20029;-76
2023/01/11 10:35:23;;;;;;;11.15;3.03;;;;;;;8.49;100.00;99981.94;5006171;28;20042;-76
2023/01/11 10:38:20;;;;;;;12.55;4.80;;;;;;;8.40;100.00;99981.09;5021460;28;20034;-76
2023/01/11 10:41:14;;;;;;;21.52;2.60;;;;;;;8.39;100.00;99978.59;5006150;28;20931;-76
2023/01/11 10:43:47;;;;;;;12.23;3.03;;;;;;;8.37;100.00;99991.22;5006191;28;20030;-76
2023/01/11 10:46:20;;;;;;;11.80;3.15;;;;;;;8.32;100.00;99982.91;5004969;28;20034;-76
2023/01/11 10:48:46;;;;;;;12.10;2.70;;;;;;;8.39;100.00;99990.06;5021435;28;20040;-76
2023/01/11 10:51:31;;;;;;;9.10;2.80;;;;;;;8.36;100.00;99981.59;5021440;28;20052;-76
2023/01/11 10:54:00;;;;;;;;;;;;;;;8.44;100.00;99985.09;5021899;28;20769;-76
2023/01/11 10:56:57;;;;;;;9.65;4.35;;;;;;;8.45;100.00;99985.91;5006059;28;20745;-76
2023/01/11 10:59:47;;;;;;;15.50;4.03;;;;;;;8.54;100.00;99997.38;4988830;28;20494;-76
2023/01/11 11:02:44;;;;;;;9.68;2.53;;;;;;;8.55;100.00;99999.91;5005847;28;20080;-77
2023/01/11 11:05:32;;;;;;;11.52;3.17;;;;;;;8.48;100.00;99998.91;5004719;28;20057;-76
2023/01/11 11:08:06;;;;;;;14.13;2.70;;;;;;;8.39;100.00;99995.38;5006006;28;20042;-76
2023/01/11 11:10:48;;;;;;;9.82;2.60;;;;;;;8.45;100.00;99994.75;5005681;28;20061;-76
2023/01/11 11:13:34;;;;;;;12.30;3.20;;;;;;;8.45;100.00;99989.44;5004886;28;20037;-76
2023/01/11 11:16:20;;;;;;;14.80;3.13;;;;;;;8.45;100.00;99977.94;5003864;28;20072;-76
2023/01/11 11:18:47;;;;;;;12.95;2.80;;;;;;;8.48;100.00;99976.78;5004592;28;20146;-77
2023/01/11 11:21:30;;;;;;;9.23;2.08;;;;;;;8.46;100.00;99982.28;5024129;28;20052;-77
2023/01/11 11:24:01;;;;;;;8.00;2.90;;;;;;;8.51;100.00;99979.13;5024660;28;20033;-76
2023/01/11 11:26:50;;;;;;;10.75;2.58;;;;;;;8.59;100.00;99985.25;5009612;28;20048;-76
2023/01/11 11:29:29;;;;;;;14.13;3.35;;;;;;;8.60;100.00;99986.09;5019259;28;20034;-77
2023/01/11 11:31:57;;;;;;;10.60;2.20;;;;;;;8.47;100.00;99981.25;4991736;28;20030;-77
2023/01/11 11:34:26;;;;;;;12.88;2.70;;;;;;;8.45;100.00;99973.47;5024623;28;20025;-77
2023/01/11 11:36:53;;;;;;;18.20;2.72;;;;;;;8.40;100.00;99978.44;5008219;28;20099;-77
2023/01/11 11:39:22;;;;;;;7.88;3.03;;;;;;;8.42;100.00;99972.97;5008516;28;20402;-77
2023/01/11 11:41:55;;;;;;;13.57;2.60;;;;;;;8.31;100.00;99954.63;5024383;28;20057;-77
2023/01/11 11:44:23;;;;;;;13.65;2.50;;;;;;;8.38;100.00;99976.91;5024467;28;20376;-77
2023/01/11 11:47:05;;;;;;;14.20;2.60;;;;;;;8.27;100.00;99970.13;5024167;28;20589;-76
2023/01/11 11:49:33;;;;;;;12.38;2.10;;;;;;;8.28;100.00;99977.09;5024259;28;20797;-77
2023/01/11 11:52:00;;;;;;;15.93;3.45;;;;;;;8.31;100.00;99974.13;5005655;28;20108;-76
2023/01/11 11:54:32;;;;;;;15.45;2.00;;;;;;;8.35;100.00;99977.25;5009190;28;20033;-77
2023/01/11 11:57:13;;;;;;;12.50;2.47;;;;;;;8.42;100.00;99980.94;5007469;28;20034;-77
2023/01/11 11:59:46;;;;;;;14.35;3.75;;;;;;;8.41;100.00;99972.13;5023753;28;20045;-76
2023/01/11 12:02:23;;;;;;;16.75;2.92;;;;;;;8.33;100.00;99974.75;5024138;28;20112;-77
2023/01/11 12:04:49;;;;;;;8.32;2.90;;;;;;;8.30;100.00;99971.59;5023941;28;20127;-76
2023/01/11 12:07:19;;;;;;;13.25;2.40;;;;;;;8.32;100.00;99970.44;5007909;28;20026;-76
2023/01/11 12:10:01;;;;;;;14.90;3.40;;;;;;;8.35;100.00;99983.41;5008614;28;20075;-77
2023/01/11 12:12:27;;;;;;;10.95;3.35;;;;;;;8.33;100.00;99985.38;5023961;28;20507;-76
2023/01/11 12:15:08;;;;;;;11.57;2.42;;;;;;;8.39;100.00;99981.25;5024001;28;20096;-77